createdAt,value
2018-07-07T00:00:43.533Z,0.00
2018-07-07T00:01:43.520Z,0.00
2018-07-07T00:02:43.504Z,0.00
2018-07-07T00:03:43.490Z,0.00
2018-07-07T00:04:43.477Z,0.00
2018-07-07T00:05:43.464Z,0.00
2018-07-07T00:06:43.452Z,0.00
2018-07-07T00:07:43.433Z,0.00
2018-07-07T00:08:43.418Z,0.00
2018-07-07T00:09:43.406Z,0.00
2018-07-07T00:10:43.390Z,0.00
2018-07-07T00:11:43.375Z,0.00
2018-07-07T00:12:43.360Z,0.00
2018-07-07T00:13:43.346Z,0.00
2018-07-07T00:14:43.338Z,0.00
2018-07-07T00:15:43.319Z,0.00
2018-07-07T00:16:43.303Z,0.00
2018-07-07T00:17:43.289Z,0.00
2018-07-07T00:18:43.276Z,0.00
2018-07-07T00:19:43.260Z,0.00
2018-07-07T00:20:43.245Z,0.00
2018-07-07T00:21:43.234Z,0.00
2018-07-07T00:22:43.218Z,0.00
2018-07-07T00:23:43.205Z,0.00
2018-07-07T00:24:43.187Z,0.00
2018-07-07T00:25:43.173Z,0.00
2018-07-07T00:26:43.160Z,0.00
2018-07-07T00:27:43.141Z,0.00
2018-07-07T00:28:43.129Z,0.00
2018-07-07T00:29:43.112Z,0.00
2018-07-07T00:30:43.097Z,0.00
2018-07-07T00:31:43.083Z,0.00
2018-07-07T00:32:43.070Z,0.00
2018-07-07T00:33:43.054Z,0.00
2018-07-07T00:34:43.040Z,0.00
2018-07-07T00:35:43.026Z,0.00
2018-07-07T00:36:43.021Z,0.00
2018-07-07T00:37:42.996Z,0.00
2018-07-07T00:38:42.981Z,0.00
2018-07-07T00:39:42.966Z,0.00
2018-07-07T00:40:42.952Z,0.00
2018-07-07T00:41:42.937Z,0.00
2018-07-07T00:42:42.921Z,0.00
2018-07-07T00:43:42.909Z,0.00
2018-07-07T00:44:42.892Z,0.00
2018-07-07T00:45:42.877Z,0.00
2018-07-07T00:46:42.863Z,0.00
2018-07-07T00:47:42.850Z,0.00
2018-07-07T00:48:42.833Z,0.00
2018-07-07T00:49:42.820Z,0.00
2018-07-07T00:50:42.807Z,0.00
2018-07-07T00:51:42.789Z,0.00
2018-07-07T00:52:42.774Z,0.00
2018-07-07T00:53:42.764Z,0.00
2018-07-07T00:54:42.744Z,0.00
2018-07-07T00:55:42.733Z,0.00
2018-07-07T00:56:42.714Z,0.00
2018-07-07T00:57:42.703Z,0.00
2018-07-07T00:58:42.690Z,0.00
2018-07-07T00:59:42.671Z,0.00
2018-07-07T01:00:42.659Z,0.00
2018-07-07T01:01:42.639Z,0.00
2018-07-07T01:02:42.630Z,0.00
2018-07-07T01:03:42.610Z,0.00
2018-07-07T01:04:42.594Z,0.00
2018-07-07T01:05:42.579Z,0.00
2018-07-07T01:06:42.564Z,0.00
2018-07-07T01:07:42.550Z,0.00
2018-07-07T01:08:42.537Z,0.00
2018-07-07T01:09:42.522Z,0.00
2018-07-07T01:10:42.505Z,0.00
2018-07-07T01:11:42.489Z,0.00
2018-07-07T01:12:42.477Z,0.00
2018-07-07T01:13:42.461Z,0.00
2018-07-07T01:14:42.446Z,0.00
2018-07-07T01:15:42.432Z,0.00
2018-07-07T01:16:42.415Z,0.00
2018-07-07T01:17:42.404Z,0.00
2018-07-07T01:18:42.385Z,0.00
2018-07-07T01:19:42.370Z,0.00
2018-07-07T01:20:42.353Z,0.00
2018-07-07T01:21:42.338Z,0.00
2018-07-07T01:22:42.320Z,0.00
2018-07-07T01:23:42.307Z,0.00
2018-07-07T01:24:42.293Z,0.00
2018-07-07T01:25:42.275Z,0.00
2018-07-07T01:26:42.276Z,0.00
2018-07-07T01:27:42.249Z,0.00
2018-07-07T01:28:42.236Z,0.00
2018-07-07T01:29:42.228Z,0.00
2018-07-07T01:30:42.201Z,0.00
2018-07-07T01:31:42.184Z,0.00
2018-07-07T01:32:42.172Z,0.00
2018-07-07T01:33:42.154Z,0.00
2018-07-07T01:34:42.139Z,0.00
2018-07-07T01:35:42.124Z,0.00
2018-07-07T01:36:42.109Z,0.00
2018-07-07T01:37:42.109Z,0.00
2018-07-07T01:38:42.077Z,0.00
2018-07-07T01:39:42.062Z,0.00
2018-07-07T01:40:42.048Z,0.00
2018-07-07T01:41:42.034Z,0.00
2018-07-07T01:42:42.017Z,0.00
2018-07-07T01:43:42.002Z,0.00
2018-07-07T01:44:41.989Z,0.00
2018-07-07T01:45:41.969Z,0.00
2018-07-07T01:46:41.960Z,0.00
2018-07-07T01:47:41.938Z,0.00
2018-07-07T01:48:41.993Z,0.00
2018-07-07T01:49:41.909Z,0.00
2018-07-07T01:50:41.894Z,0.00
2018-07-07T01:51:41.878Z,0.00
2018-07-07T01:52:41.861Z,0.00
2018-07-07T01:53:41.845Z,0.00
2018-07-07T01:54:41.830Z,0.00
2018-07-07T01:55:41.817Z,0.00
2018-07-07T01:56:41.802Z,0.00
2018-07-07T01:57:41.784Z,0.00
2018-07-07T01:58:41.784Z,0.00
2018-07-07T01:59:41.754Z,0.00
2018-07-07T02:00:41.739Z,0.00
2018-07-07T02:01:41.723Z,0.00
2018-07-07T02:02:41.710Z,0.00
2018-07-07T02:03:41.693Z,0.00
2018-07-07T02:04:41.674Z,0.00
2018-07-07T02:05:41.658Z,0.00
2018-07-07T02:06:41.643Z,0.00
2018-07-07T02:07:41.627Z,0.00
2018-07-07T02:08:41.614Z,0.00
2018-07-07T02:09:41.597Z,0.00
2018-07-07T02:10:41.584Z,0.00
2018-07-07T02:11:41.568Z,4.00
2018-07-07T02:12:41.554Z,4.00
2018-07-07T02:13:41.537Z,0.00
2018-07-07T02:14:41.520Z,0.00
2018-07-07T02:15:41.505Z,0.00
2018-07-07T02:16:41.488Z,4.00
2018-07-07T02:17:41.473Z,4.00
2018-07-07T02:18:41.471Z,4.00
2018-07-07T02:19:41.443Z,4.00
2018-07-07T02:20:41.427Z,4.00
2018-07-07T02:21:41.408Z,4.00
2018-07-07T02:22:41.395Z,4.00
2018-07-07T02:23:41.378Z,8.00
2018-07-07T02:24:41.366Z,4.00
2018-07-07T02:25:41.346Z,8.00
2018-07-07T02:26:41.331Z,8.00
2018-07-07T02:27:41.316Z,12.00
2018-07-07T02:28:41.300Z,12.00
2018-07-07T02:29:41.286Z,12.00
2018-07-07T02:30:41.270Z,12.00
2018-07-07T02:31:41.258Z,12.00
2018-07-07T02:32:41.239Z,16.00
2018-07-07T02:33:41.219Z,16.00
2018-07-07T02:34:41.206Z,20.00
2018-07-07T02:35:41.187Z,24.00
2018-07-07T02:36:41.173Z,28.00
2018-07-07T02:37:41.161Z,28.00
2018-07-07T02:38:41.140Z,32.00
2018-07-07T02:39:41.129Z,32.00
2018-07-07T02:40:41.109Z,36.00
2018-07-07T02:41:41.099Z,40.00
2018-07-07T02:42:41.085Z,44.00
2018-07-07T02:43:41.063Z,48.00
2018-07-07T02:44:41.046Z,56.00
2018-07-07T02:45:41.042Z,56.00
2018-07-07T02:46:41.019Z,64.00
2018-07-07T02:47:41.000Z,68.00
2018-07-07T02:48:40.986Z,76.00
2018-07-07T02:49:40.967Z,84.00
2018-07-07T02:50:40.955Z,88.00
2018-07-07T02:51:40.944Z,96.00
2018-07-07T02:52:40.923Z,104.00
2018-07-07T02:53:40.907Z,108.00
2018-07-07T02:54:40.888Z,120.00
2018-07-07T02:55:40.870Z,128.00
2018-07-07T02:56:40.859Z,136.00
2018-07-07T02:57:40.840Z,144.00
2018-07-07T02:58:40.827Z,156.00
2018-07-07T02:59:40.810Z,168.00
2018-07-07T03:00:40.791Z,180.00
2018-07-07T03:01:40.779Z,188.00
2018-07-07T03:02:40.779Z,204.00
2018-07-07T03:03:40.745Z,216.00
2018-07-07T03:04:40.729Z,232.00
2018-07-07T03:05:40.712Z,244.00
2018-07-07T03:06:40.702Z,260.00
2018-07-07T03:07:40.680Z,276.00
2018-07-07T03:08:40.664Z,288.00
2018-07-07T03:09:40.653Z,304.00
2018-07-07T03:10:40.632Z,316.00
2018-07-07T03:11:40.616Z,336.00
2018-07-07T03:12:40.601Z,352.00
2018-07-07T03:13:40.582Z,368.00
2018-07-07T03:14:40.567Z,384.00
2018-07-07T03:15:40.551Z,392.00
2018-07-07T03:16:40.536Z,408.00
2018-07-07T03:17:40.522Z,424.00
2018-07-07T03:18:40.508Z,436.00
2018-07-07T03:19:40.487Z,452.00
2018-07-07T03:20:40.473Z,468.00
2018-07-07T03:21:40.454Z,488.00
2018-07-07T03:22:40.446Z,508.00
2018-07-07T03:23:40.422Z,528.00
2018-07-07T03:24:40.406Z,548.00
2018-07-07T03:25:40.388Z,568.00
2018-07-07T03:26:40.380Z,596.00
2018-07-07T03:27:40.359Z,624.00
2018-07-07T03:28:40.343Z,656.00
2018-07-07T03:29:40.327Z,688.00
2018-07-07T03:30:40.313Z,720.00
2018-07-07T03:31:40.298Z,764.00
2018-07-07T03:32:40.277Z,804.00
2018-07-07T03:33:40.258Z,848.00
2018-07-07T03:34:40.247Z,888.00
2018-07-07T03:35:40.229Z,932.00
2018-07-07T03:36:40.218Z,968.00
2018-07-07T03:37:40.194Z,1004.00
2018-07-07T03:38:40.180Z,1036.00
2018-07-07T03:39:40.173Z,1068.00
2018-07-07T03:40:40.151Z,1100.00
2018-07-07T03:41:40.129Z,1128.00
2018-07-07T03:42:40.114Z,1152.00
2018-07-07T03:43:40.100Z,1172.00
2018-07-07T03:44:40.084Z,1192.00
2018-07-07T03:45:40.066Z,1204.00
2018-07-07T03:46:40.052Z,1208.00
2018-07-07T03:47:40.036Z,1212.00
2018-07-07T03:48:40.016Z,1216.00
2018-07-07T03:49:40.003Z,1216.00
2018-07-07T03:50:39.985Z,1220.00
2018-07-07T03:51:39.969Z,1216.00
2018-07-07T03:52:39.954Z,1224.00
2018-07-07T03:53:39.937Z,1224.00
2018-07-07T03:54:39.919Z,1224.00
2018-07-07T03:55:39.902Z,1228.00
2018-07-07T03:56:39.887Z,1220.00
2018-07-07T03:57:39.870Z,1212.00
2018-07-07T03:58:39.864Z,1196.00
2018-07-07T03:59:39.838Z,1176.00
2018-07-07T04:00:39.824Z,1160.00
2018-07-07T04:01:39.812Z,1148.00
2018-07-07T04:02:39.792Z,1144.00
2018-07-07T04:03:39.777Z,1140.00
2018-07-07T04:04:39.806Z,1140.00
2018-07-07T04:05:39.743Z,1140.00
2018-07-07T04:06:39.728Z,1144.00
2018-07-07T04:07:39.711Z,1140.00
2018-07-07T04:08:39.693Z,1144.00
2018-07-07T04:09:39.677Z,1156.00
2018-07-07T04:10:39.661Z,1180.00
2018-07-07T04:11:39.646Z,1208.00
2018-07-07T04:12:39.630Z,1236.00
2018-07-07T04:13:39.611Z,1256.00
2018-07-07T04:14:39.597Z,1296.00
2018-07-07T04:15:39.583Z,1348.00
2018-07-07T04:16:39.565Z,1412.00
2018-07-07T04:17:39.552Z,1456.00
2018-07-07T04:18:39.533Z,1508.00
2018-07-07T04:19:39.521Z,1564.00
2018-07-07T04:20:39.499Z,1632.00
2018-07-07T04:21:39.491Z,1680.00
2018-07-07T04:22:39.467Z,1716.00
2018-07-07T04:23:39.451Z,1736.00
2018-07-07T04:24:39.435Z,1720.00
2018-07-07T04:25:39.418Z,1708.00
2018-07-07T04:26:39.402Z,1760.00
2018-07-07T04:27:39.393Z,1620.00
2018-07-07T04:28:39.371Z,1536.00
2018-07-07T04:29:39.356Z,1536.00
2018-07-07T04:30:39.358Z,1432.00
2018-07-07T04:31:39.324Z,1420.00
2018-07-07T04:32:39.313Z,1332.00
2018-07-07T04:33:39.293Z,1292.00
2018-07-07T04:34:39.276Z,1256.00
2018-07-07T04:35:39.266Z,1224.00
2018-07-07T04:36:39.249Z,1192.00
2018-07-07T04:37:39.229Z,1152.00
2018-07-07T04:38:39.211Z,1148.00
2018-07-07T04:39:39.193Z,1160.00
2018-07-07T04:40:39.181Z,1160.00
2018-07-07T04:41:39.163Z,1180.00
2018-07-07T04:42:39.149Z,1192.00
2018-07-07T04:43:39.130Z,1196.00
2018-07-07T04:44:39.114Z,1216.00
2018-07-07T04:45:39.098Z,1232.00
2018-07-07T04:46:39.084Z,1248.00
2018-07-07T04:47:39.069Z,1260.00
2018-07-07T04:48:39.052Z,1256.00
2018-07-07T04:49:39.035Z,1248.00
2018-07-07T04:50:39.017Z,1280.00
2018-07-07T04:51:39.002Z,1304.00
2018-07-07T04:52:38.986Z,1352.00
2018-07-07T04:53:38.975Z,1408.00
2018-07-07T04:54:38.953Z,1360.00
2018-07-07T04:55:38.938Z,1488.00
2018-07-07T04:56:38.922Z,1412.00
2018-07-07T04:57:38.908Z,1512.00
2018-07-07T04:58:38.888Z,1452.00
2018-07-07T04:59:38.877Z,1468.00
2018-07-07T05:00:38.857Z,1484.00
2018-07-07T05:01:38.842Z,1488.00
2018-07-07T05:02:38.830Z,1496.00
2018-07-07T05:03:38.815Z,1496.00
2018-07-07T05:04:38.895Z,1476.00
2018-07-07T05:05:38.777Z,1496.00
2018-07-07T05:06:38.761Z,1512.00
2018-07-07T05:07:38.745Z,1508.00
2018-07-07T05:08:38.728Z,1504.00
2018-07-07T05:09:38.713Z,1516.00
2018-07-07T05:10:38.696Z,1528.00
2018-07-07T05:11:38.685Z,1528.00
2018-07-07T05:12:38.668Z,1556.00
2018-07-07T05:13:38.650Z,1600.00
2018-07-07T05:14:38.639Z,1656.00
2018-07-07T05:15:38.756Z,1700.00
2018-07-07T05:16:38.604Z,1756.00
2018-07-07T05:17:38.588Z,1828.00
2018-07-07T05:18:38.577Z,1912.00
2018-07-07T05:19:38.558Z,2052.00
2018-07-07T05:20:38.538Z,2088.00
2018-07-07T05:21:38.520Z,2024.00
2018-07-07T05:22:38.509Z,2004.00
2018-07-07T05:23:38.491Z,2036.00
2018-07-07T05:24:38.473Z,2148.00
2018-07-07T05:25:38.457Z,2076.00
2018-07-07T05:26:38.443Z,2004.00
2018-07-07T05:27:38.425Z,2128.00
2018-07-07T05:28:38.412Z,2240.00
2018-07-07T05:29:38.396Z,2124.00
2018-07-07T05:30:38.380Z,2092.00
2018-07-07T05:31:38.372Z,1948.00
2018-07-07T05:32:38.349Z,2164.00
2018-07-07T05:33:38.343Z,2220.00
2018-07-07T05:34:38.315Z,1984.00
2018-07-07T05:35:38.300Z,1840.00
2018-07-07T05:36:38.286Z,1836.00
2018-07-07T05:37:38.269Z,1876.00
2018-07-07T05:38:38.258Z,1924.00
2018-07-07T05:39:38.239Z,1728.00
2018-07-07T05:40:38.223Z,1640.00
2018-07-07T05:41:38.205Z,1664.00
2018-07-07T05:42:38.197Z,1672.00
2018-07-07T05:43:38.174Z,1636.00
2018-07-07T05:44:38.169Z,1656.00
2018-07-07T05:45:38.145Z,1696.00
2018-07-07T05:46:38.128Z,1928.00
2018-07-07T05:47:38.111Z,1692.00
2018-07-07T05:48:38.097Z,1460.00
2018-07-07T05:49:38.080Z,1476.00
2018-07-07T05:50:38.065Z,1624.00
2018-07-07T05:51:38.052Z,1572.00
2018-07-07T05:52:38.036Z,1652.00
2018-07-07T05:53:38.017Z,1688.00
2018-07-07T05:54:38.010Z,1892.00
2018-07-07T05:55:37.987Z,1828.00
2018-07-07T05:56:37.973Z,1788.00
2018-07-07T05:57:37.957Z,1696.00
2018-07-07T05:58:37.941Z,1804.00
2018-07-07T05:59:37.926Z,1792.00
2018-07-07T06:00:37.909Z,1908.00
2018-07-07T06:01:37.896Z,1724.00
2018-07-07T06:02:37.880Z,1720.00
2018-07-07T06:03:37.864Z,1728.00
2018-07-07T06:04:37.851Z,1872.00
2018-07-07T06:05:37.839Z,1996.00
2018-07-07T06:06:37.819Z,2064.00
2018-07-07T06:07:37.802Z,1868.00
2018-07-07T06:08:37.787Z,1760.00
2018-07-07T06:09:37.771Z,1796.00
2018-07-07T06:10:37.755Z,1964.00
2018-07-07T06:11:37.743Z,1984.00
2018-07-07T06:12:37.721Z,2360.00
2018-07-07T06:13:37.707Z,2220.00
2018-07-07T06:14:37.693Z,2256.00
2018-07-07T06:15:37.678Z,2296.00
2018-07-07T06:16:37.661Z,2252.00
2018-07-07T06:17:37.647Z,2140.00
2018-07-07T06:18:37.631Z,2320.00
2018-07-07T06:19:37.629Z,2352.00
2018-07-07T06:20:37.599Z,2308.00
2018-07-07T06:21:37.586Z,2008.00
2018-07-07T06:22:37.573Z,1936.00
2018-07-07T06:23:37.551Z,1844.00
2018-07-07T06:24:37.538Z,1788.00
2018-07-07T06:25:37.524Z,1820.00
2018-07-07T06:26:37.529Z,1724.00
2018-07-07T06:27:37.491Z,1904.00
2018-07-07T06:28:37.474Z,1880.00
2018-07-07T06:29:37.473Z,1868.00
2018-07-07T06:30:37.445Z,2008.00
2018-07-07T06:31:37.433Z,2172.00
2018-07-07T06:32:37.412Z,1948.00
2018-07-07T06:33:37.398Z,1980.00
2018-07-07T06:34:37.382Z,2076.00
2018-07-07T06:35:37.369Z,2212.00
2018-07-07T06:36:37.355Z,2176.00
2018-07-07T06:37:37.338Z,2360.00
2018-07-07T06:38:37.323Z,2464.00
2018-07-07T06:39:37.306Z,2500.00
2018-07-07T06:40:37.293Z,2392.00
2018-07-07T06:41:37.275Z,2252.00
2018-07-07T06:42:37.262Z,2176.00
2018-07-07T06:43:37.259Z,2112.00
2018-07-07T06:44:37.234Z,2172.00
2018-07-07T06:45:37.216Z,2252.00
2018-07-07T06:46:37.201Z,2872.00
2018-07-07T06:47:37.191Z,3960.00
2018-07-07T06:48:37.171Z,4500.00
2018-07-07T06:49:37.154Z,4648.00
2018-07-07T06:50:37.143Z,3464.00
2018-07-07T06:51:37.129Z,3236.00
2018-07-07T06:52:37.123Z,2736.00
2018-07-07T06:53:37.102Z,2744.00
2018-07-07T06:54:37.083Z,2684.00
2018-07-07T06:55:37.065Z,2512.00
2018-07-07T06:56:37.052Z,2468.00
2018-07-07T06:57:37.035Z,2388.00
2018-07-07T06:58:37.021Z,2296.00
2018-07-07T06:59:37.033Z,2292.00
2018-07-07T07:00:36.991Z,2236.00
2018-07-07T07:01:36.979Z,3124.00
2018-07-07T07:02:36.961Z,2988.00
2018-07-07T07:03:36.950Z,2520.00
2018-07-07T07:04:36.937Z,2372.00
2018-07-07T07:05:36.920Z,2352.00
2018-07-07T07:06:36.957Z,2408.00
2018-07-07T07:07:36.897Z,2820.00
2018-07-07T07:08:36.876Z,3160.00
2018-07-07T07:09:36.860Z,2924.00
2018-07-07T07:10:36.845Z,2756.00
2018-07-07T07:11:36.831Z,2736.00
2018-07-07T07:12:36.817Z,2896.00
2018-07-07T07:13:36.801Z,2808.00
2018-07-07T07:14:36.789Z,3192.00
2018-07-07T07:15:36.773Z,3248.00
2018-07-07T07:16:36.758Z,3160.00
2018-07-07T07:17:36.743Z,3004.00
2018-07-07T07:18:36.731Z,2940.00
2018-07-07T07:19:36.714Z,2736.00
2018-07-07T07:20:36.702Z,2660.00
2018-07-07T07:21:36.700Z,2628.00
2018-07-07T07:22:36.671Z,2616.00
2018-07-07T07:23:36.661Z,2624.00
2018-07-07T07:24:36.645Z,2700.00
2018-07-07T07:25:36.630Z,2840.00
2018-07-07T07:26:36.619Z,2876.00
2018-07-07T07:27:36.603Z,2920.00
2018-07-07T07:28:36.590Z,3444.00
2018-07-07T07:29:36.581Z,4380.00
2018-07-07T07:30:36.563Z,4384.00
2018-07-07T07:31:36.552Z,3836.00
2018-07-07T07:32:36.628Z,3736.00
2018-07-07T07:33:36.518Z,3668.00
2018-07-07T07:34:36.502Z,3248.00
2018-07-07T07:35:36.490Z,3016.00
2018-07-07T07:36:36.476Z,3348.00
2018-07-07T07:37:36.474Z,3208.00
2018-07-07T07:38:36.451Z,3172.00
2018-07-07T07:39:36.435Z,3112.00
2018-07-07T07:40:36.421Z,3112.00
2018-07-07T07:41:36.408Z,3152.00
2018-07-07T07:42:36.400Z,3196.00
2018-07-07T07:43:36.381Z,3260.00
2018-07-07T07:44:36.369Z,3316.00
2018-07-07T07:45:36.363Z,3364.00
2018-07-07T07:46:36.340Z,3408.00
2018-07-07T07:47:36.326Z,3464.00
2018-07-07T07:48:36.314Z,3540.00
2018-07-07T07:49:36.297Z,3612.00
2018-07-07T07:50:36.282Z,3708.00
2018-07-07T07:51:36.267Z,3768.00
2018-07-07T07:52:36.257Z,3852.00
2018-07-07T07:53:36.248Z,3860.00
2018-07-07T07:54:36.235Z,3904.00
2018-07-07T07:55:36.218Z,3924.00
2018-07-07T07:56:36.204Z,3976.00
2018-07-07T07:57:36.191Z,4020.00
2018-07-07T07:58:36.182Z,4036.00
2018-07-07T07:59:36.169Z,4128.00
2018-07-07T08:00:36.152Z,4204.00
2018-07-07T08:01:36.140Z,4308.00
2018-07-07T08:02:36.130Z,4368.00
2018-07-07T08:03:36.114Z,4428.00
2018-07-07T08:04:36.105Z,4528.00
2018-07-07T08:05:36.092Z,4592.00
2018-07-07T08:06:36.076Z,4700.00
2018-07-07T08:07:36.468Z,4896.00
2018-07-07T08:08:36.052Z,5168.00
2018-07-07T08:09:36.038Z,5472.00
2018-07-07T08:10:36.027Z,9756.00
2018-07-07T08:11:36.014Z,29920.00
2018-07-07T08:12:36.002Z,55104.00
2018-07-07T08:13:35.987Z,73728.00
2018-07-07T08:14:35.975Z,76320.00
2018-07-07T08:15:35.965Z,76256.00
2018-07-07T08:16:35.957Z,80640.00
2018-07-07T08:17:35.940Z,82624.00
2018-07-07T08:18:35.938Z,84128.00
2018-07-07T08:19:35.918Z,84896.00
2018-07-07T08:20:35.910Z,80320.00
2018-07-07T08:21:35.900Z,82592.00
2018-07-07T08:22:35.948Z,89248.00
2018-07-07T08:23:35.880Z,88832.00
2018-07-07T08:24:35.872Z,90240.00
2018-07-07T08:25:35.865Z,89952.00
2018-07-07T08:26:35.858Z,85792.00
2018-07-07T08:27:35.848Z,75776.00
2018-07-07T08:28:35.842Z,88512.00
2018-07-07T08:29:35.835Z,86016.00
2018-07-07T08:30:35.828Z,83520.00
2018-07-07T08:31:35.825Z,82208.00
2018-07-07T08:32:35.814Z,86368.00
2018-07-07T08:33:35.808Z,91904.00
2018-07-07T08:34:35.844Z,94560.00
2018-07-07T08:35:35.801Z,94656.00
2018-07-07T08:36:35.793Z,97120.00
2018-07-07T08:37:35.788Z,99264.00
2018-07-07T08:38:35.987Z,76416.00
2018-07-07T08:39:35.776Z,88736.00
2018-07-07T08:40:35.776Z,72288.00
2018-07-07T08:41:35.767Z,80480.00
2018-07-07T08:42:35.765Z,65632.00
2018-07-07T08:43:35.762Z,50016.00
2018-07-07T08:44:35.753Z,42624.00
2018-07-07T08:45:35.756Z,48992.00
2018-07-07T08:46:35.747Z,53568.00
2018-07-07T08:47:35.744Z,38112.00
2018-07-07T08:48:35.746Z,65664.00
2018-07-07T08:49:35.737Z,51552.00
2018-07-07T08:50:35.731Z,67328.00
2018-07-07T08:51:35.729Z,38208.00
2018-07-07T08:52:35.723Z,44032.00
2018-07-07T08:53:35.724Z,38944.00
2018-07-07T08:54:35.714Z,24896.00
2018-07-07T08:55:35.712Z,25856.00
2018-07-07T08:56:35.708Z,23584.00
2018-07-07T08:57:35.707Z,22048.00
2018-07-07T08:58:35.697Z,19584.00
2018-07-07T08:59:35.695Z,19232.00
2018-07-07T09:00:35.692Z,20864.00
2018-07-07T09:01:35.682Z,20128.00
2018-07-07T09:02:35.681Z,19104.00
2018-07-07T09:03:35.675Z,18688.00
2018-07-07T09:04:35.669Z,20128.00
2018-07-07T09:05:35.664Z,21920.00
2018-07-07T09:06:35.666Z,20864.00
2018-07-07T09:07:35.658Z,21504.00
2018-07-07T09:08:35.652Z,20832.00
2018-07-07T09:09:35.646Z,20384.00
2018-07-07T09:10:35.642Z,21248.00
2018-07-07T09:11:35.636Z,20160.00
2018-07-07T09:12:35.634Z,18976.00
2018-07-07T09:13:35.624Z,22176.00
2018-07-07T09:14:35.624Z,23712.00
2018-07-07T09:15:35.618Z,20384.00
2018-07-07T09:16:35.613Z,24160.00
2018-07-07T09:17:35.606Z,23008.00
2018-07-07T09:18:35.603Z,20480.00
2018-07-07T09:19:35.597Z,21536.00
2018-07-07T09:20:35.597Z,24704.00
2018-07-07T09:21:35.584Z,23936.00
2018-07-07T09:22:35.580Z,23680.00
2018-07-07T09:23:35.576Z,38912.00
2018-07-07T09:24:35.669Z,45984.00
2018-07-07T09:25:35.565Z,60384.00
2018-07-07T09:26:35.562Z,61824.00
2018-07-07T09:27:35.559Z,81088.00
2018-07-07T09:28:35.552Z,103936.00
2018-07-07T09:29:35.558Z,61600.00
2018-07-07T09:30:35.552Z,58816.00
2018-07-07T09:31:35.540Z,94880.00
2018-07-07T09:32:35.534Z,27168.00
2018-07-07T09:33:35.535Z,21376.00
2018-07-07T09:34:35.524Z,21984.00
2018-07-07T09:35:35.525Z,21728.00
2018-07-07T09:36:35.517Z,21600.00
2018-07-07T09:37:35.511Z,20416.00
2018-07-07T09:38:35.508Z,20096.00
2018-07-07T09:39:35.502Z,21280.00
2018-07-07T09:40:35.498Z,23424.00
2018-07-07T09:41:35.492Z,24928.00
2018-07-07T09:42:35.490Z,27872.00
2018-07-07T09:43:35.485Z,40192.00
2018-07-07T09:44:35.486Z,94976.00
2018-07-07T09:45:35.473Z,85440.00
2018-07-07T09:46:35.470Z,62400.00
2018-07-07T09:47:35.470Z,63968.00
2018-07-07T09:48:35.467Z,64128.00
2018-07-07T09:49:35.457Z,63712.00
2018-07-07T09:50:35.453Z,43424.00
2018-07-07T09:51:35.448Z,49856.00
2018-07-07T09:52:35.451Z,48512.00
2018-07-07T09:53:35.438Z,57056.00
2018-07-07T09:54:35.437Z,97024.00
2018-07-07T09:55:35.435Z,117536.00
2018-07-07T09:56:35.426Z,116384.00
2018-07-07T09:57:35.427Z,107104.00
2018-07-07T09:58:35.418Z,110016.00
2018-07-07T09:59:35.416Z,103616.00
2018-07-07T10:00:35.421Z,108448.00
2018-07-07T10:01:35.406Z,111264.00
2018-07-07T10:02:35.403Z,103392.00
2018-07-07T10:03:35.402Z,89120.00
2018-07-07T10:04:35.395Z,97728.00
2018-07-07T10:05:35.393Z,99648.00
2018-07-07T10:06:35.390Z,102240.00
2018-07-07T10:07:35.425Z,105152.00
2018-07-07T10:08:35.381Z,109568.00
2018-07-07T10:09:35.379Z,113568.00
2018-07-07T10:10:35.377Z,114016.00
2018-07-07T10:11:35.376Z,98176.00
2018-07-07T10:12:35.370Z,102848.00
2018-07-07T10:13:35.460Z,111040.00
2018-07-07T10:14:35.365Z,112544.00
2018-07-07T10:15:35.363Z,112256.00
2018-07-07T10:16:35.365Z,97856.00
2018-07-07T10:17:35.361Z,109408.00
2018-07-07T10:18:35.353Z,99872.00
2018-07-07T10:19:35.354Z,38016.00
2018-07-07T10:20:35.376Z,100640.00
2018-07-07T10:21:35.348Z,85248.00
2018-07-07T10:22:35.348Z,78752.00
2018-07-07T10:23:35.348Z,65216.00
2018-07-07T10:24:35.345Z,101056.00
2018-07-07T10:25:35.343Z,94432.00
2018-07-07T10:26:35.342Z,122432.00
2018-07-07T10:27:35.339Z,89760.00
2018-07-07T10:28:35.345Z,69248.00
2018-07-07T10:29:35.346Z,87328.00
2018-07-07T10:30:35.340Z,111392.00
2018-07-07T10:31:35.373Z,62528.00
2018-07-07T10:32:35.342Z,90720.00
2018-07-07T10:33:35.328Z,91488.00
2018-07-07T10:34:35.334Z,101472.00
2018-07-07T10:35:35.325Z,101664.00
2018-07-07T10:36:35.326Z,108352.00
2018-07-07T10:37:35.379Z,113824.00
2018-07-07T10:38:35.322Z,119616.00
2018-07-07T10:39:35.322Z,124096.00
2018-07-07T10:40:35.323Z,125024.00
2018-07-07T10:41:35.326Z,124608.00
2018-07-07T10:42:35.320Z,123104.00
2018-07-07T10:43:35.328Z,119648.00
2018-07-07T10:44:35.323Z,117856.00
2018-07-07T10:45:35.385Z,111840.00
2018-07-07T10:46:35.315Z,85856.00
2018-07-07T10:47:35.317Z,126496.00
2018-07-07T10:48:35.317Z,111776.00
2018-07-07T10:49:35.317Z,75488.00
2018-07-07T10:50:35.317Z,115776.00
2018-07-07T10:51:35.319Z,120768.00
2018-07-07T10:52:35.317Z,114848.00
2018-07-07T10:53:35.316Z,112800.00
2018-07-07T10:54:35.320Z,115424.00
2018-07-07T10:55:35.374Z,95072.00
2018-07-07T10:56:35.318Z,124992.00
2018-07-07T10:57:35.318Z,116064.00
2018-07-07T10:58:35.317Z,123072.00
2018-07-07T10:59:35.318Z,121408.00
2018-07-07T11:00:35.327Z,119232.00
2018-07-07T11:01:35.323Z,126016.00
2018-07-07T11:02:35.331Z,109664.00
2018-07-07T11:03:35.321Z,76352.00
2018-07-07T11:04:35.321Z,101152.00
2018-07-07T11:05:35.321Z,90368.00
2018-07-07T11:06:35.329Z,43968.00
2018-07-07T11:07:35.324Z,122080.00
2018-07-07T11:08:35.330Z,52224.00
2018-07-07T11:09:35.327Z,62720.00
2018-07-07T11:10:35.328Z,100128.00
2018-07-07T11:11:35.331Z,53088.00
2018-07-07T11:12:35.332Z,62240.00
2018-07-07T11:13:35.332Z,89312.00
2018-07-07T11:14:35.332Z,71680.00
2018-07-07T11:15:35.334Z,23648.00
2018-07-07T11:16:35.341Z,20096.00
2018-07-07T11:17:35.344Z,19136.00
2018-07-07T11:18:35.336Z,21120.00
2018-07-07T11:19:35.336Z,25024.00
2018-07-07T11:20:35.336Z,30048.00
2018-07-07T11:21:35.345Z,27680.00
2018-07-07T11:22:35.346Z,32224.00
2018-07-07T11:23:35.336Z,59200.00
2018-07-07T11:24:35.346Z,87616.00
2018-07-07T11:25:35.339Z,64928.00
2018-07-07T11:26:35.347Z,58272.00
2018-07-07T11:27:35.334Z,53344.00
2018-07-07T11:28:35.344Z,118464.00
2018-07-07T11:29:35.336Z,71840.00
2018-07-07T11:30:35.336Z,130848.00
2018-07-07T11:31:35.338Z,66720.00
2018-07-07T11:32:35.337Z,116704.00
2018-07-07T11:33:35.342Z,134208.00
2018-07-07T11:34:35.337Z,95904.00
2018-07-07T11:35:35.340Z,98336.00
2018-07-07T11:36:35.444Z,92928.00
2018-07-07T11:37:35.332Z,116864.00
2018-07-07T11:38:35.337Z,127264.00
2018-07-07T11:39:35.337Z,128096.00
2018-07-07T11:40:35.337Z,124512.00
2018-07-07T11:41:35.345Z,107200.00
2018-07-07T11:42:35.336Z,108192.00
2018-07-07T11:43:35.336Z,94944.00
2018-07-07T11:44:35.340Z,109120.00
2018-07-07T11:45:35.339Z,82176.00
2018-07-07T11:46:35.339Z,59200.00
2018-07-07T11:47:35.340Z,55904.00
2018-07-07T11:48:35.340Z,55328.00
2018-07-07T11:49:35.341Z,69504.00
2018-07-07T11:50:35.441Z,106080.00
2018-07-07T11:51:35.344Z,84544.00
2018-07-07T11:52:35.344Z,91232.00
2018-07-07T11:53:35.342Z,92832.00
2018-07-07T11:54:35.345Z,108096.00
2018-07-07T11:55:35.353Z,62176.00
2018-07-07T11:56:35.345Z,36320.00
2018-07-07T11:57:35.345Z,28256.00
2018-07-07T11:58:35.346Z,24704.00
2018-07-07T11:59:35.351Z,25216.00
2018-07-07T12:00:35.358Z,24384.00
2018-07-07T12:01:35.349Z,25920.00
2018-07-07T12:02:35.357Z,27616.00
2018-07-07T12:03:35.352Z,24448.00
2018-07-07T12:04:35.438Z,23936.00
2018-07-07T12:05:35.352Z,28928.00
2018-07-07T12:06:35.351Z,28672.00
2018-07-07T12:07:35.356Z,34592.00
2018-07-07T12:08:35.352Z,47584.00
2018-07-07T12:09:35.352Z,77184.00
2018-07-07T12:10:35.355Z,73280.00
2018-07-07T12:11:35.380Z,72864.00
2018-07-07T12:12:35.357Z,108672.00